createdAt,value
2023-04-18T00:01:35.372Z,7.47
2023-04-18T00:06:37.640Z,7.30
2023-04-18T00:11:41.184Z,7.97
2023-04-18T00:16:43.369Z,7.30
2023-04-18T00:21:45.582Z,7.53
2023-04-18T00:26:49.103Z,7.15
2023-04-18T00:31:51.245Z,7.90
2023-04-18T00:36:53.307Z,5.90
2023-04-18T00:41:56.869Z,6.68
2023-04-18T00:46:59.158Z,5.65
2023-04-18T00:52:01.420Z,6.45
2023-04-18T00:57:05.477Z,6.22
2023-04-18T01:02:07.730Z,5.50
2023-04-18T01:07:10.047Z,5.95
2023-04-18T01:12:13.751Z,5.88
2023-04-18T01:17:15.894Z,5.28
2023-04-18T01:22:19.594Z,5.80
2023-04-18T01:27:23.300Z,5.90
2023-04-18T01:32:25.491Z,5.20
2023-04-18T01:37:27.636Z,5.28
2023-04-18T01:42:31.181Z,5.88
2023-04-18T01:47:33.336Z,4.93
2023-04-18T01:52:35.534Z,4.68
2023-04-18T01:57:39.201Z,4.50
2023-04-18T02:02:41.797Z,4.35
2023-04-18T02:07:44.209Z,4.07
2023-04-18T02:12:47.720Z,4.43
2023-04-18T02:17:49.900Z,4.88
2023-04-18T02:22:52.664Z,4.95
2023-04-18T02:27:57.364Z,4.93
2023-04-18T02:32:59.573Z,4.65
2023-04-18T02:38:01.883Z,4.63
2023-04-18T02:43:05.350Z,4.35
2023-04-18T02:48:07.728Z,4.85
2023-04-18T02:53:10.022Z,4.43
2023-04-18T02:58:13.567Z,5.10
2023-04-18T03:03:18.771Z,5.00
2023-04-18T03:08:20.951Z,6.15
2023-04-18T03:13:24.640Z,5.70
2023-04-18T03:18:26.723Z,6.30
2023-04-18T03:23:29.112Z,6.40
2023-04-18T03:28:32.897Z,7.18
2023-04-18T03:33:35.009Z,7.13
2023-04-18T03:38:39.078Z,7.18
2023-04-18T03:43:42.563Z,6.78
2023-04-18T03:48:44.802Z,7.38
2023-04-18T03:53:46.915Z,6.82
2023-04-18T03:58:50.586Z,8.35
2023-04-18T04:03:52.894Z,7.68
2023-04-18T04:08:55.280Z,8.27
2023-04-18T04:13:58.872Z,7.82
2023-04-18T04:19:01.060Z,7.32
2023-04-18T04:24:03.260Z,8.43
2023-04-18T04:29:06.773Z,7.30
2023-04-18T04:34:08.918Z,8.15
2023-04-18T04:39:11.026Z,7.43
2023-04-18T04:44:14.798Z,7.85
2023-04-18T04:49:17.341Z,6.30
2023-04-18T04:54:19.403Z,7.53
2023-04-18T04:59:23.018Z,7.35
2023-04-18T05:04:25.385Z,7.47
2023-04-18T05:09:27.837Z,6.93
2023-04-18T05:14:31.413Z,8.13
2023-04-18T05:19:33.560Z,7.43
2023-04-18T05:24:35.787Z,6.85
2023-04-18T05:29:39.444Z,7.93
2023-04-18T05:34:41.714Z,7.28
2023-04-18T05:39:43.842Z,7.50
2023-04-18T05:44:47.401Z,7.70
2023-04-18T05:49:49.535Z,6.90
2023-04-18T05:54:51.714Z,6.80
2023-04-18T05:59:55.398Z,5.60
2023-04-18T06:04:57.631Z,6.13
2023-04-18T06:10:00.084Z,6.32
2023-04-18T06:15:04.370Z,7.10
2023-04-18T06:20:07.513Z,6.57
2023-04-18T06:25:10.239Z,6.30
2023-04-18T06:30:14.483Z,6.88
2023-04-18T06:35:17.829Z,6.95
2023-04-18T06:40:20.184Z,7.03
2023-04-18T06:45:23.765Z,8.02
2023-04-18T06:50:26.082Z,7.90
2023-04-18T06:55:28.300Z,6.32
2023-04-18T07:00:31.958Z,6.25
2023-04-18T07:05:34.095Z,7.05
2023-04-18T07:10:36.287Z,6.05
2023-04-18T07:15:39.870Z,5.70
2023-04-18T07:20:42.091Z,7.35
2023-04-18T07:25:44.237Z,6.47
2023-04-18T07:30:47.776Z,5.30
2023-04-18T07:35:50.439Z,6.00
2023-04-18T07:41:00.447Z,6.45
2023-04-18T07:46:05.190Z,5.88
2023-04-18T07:51:07.512Z,6.32
2023-04-18T07:56:10.194Z,6.53
2023-04-18T08:01:13.742Z,6.28
2023-04-18T08:06:15.982Z,6.43
2023-04-18T08:11:18.304Z,5.13
2023-04-18T08:16:22.230Z,5.78
2023-04-18T08:21:24.621Z,6.13
2023-04-18T08:26:26.864Z,5.72
2023-04-18T08:31:30.654Z,5.00
2023-04-18T08:36:32.880Z,5.15
2023-04-18T08:41:37.496Z,5.10
2023-04-18T08:46:41.043Z,5.47
2023-04-18T08:51:45.929Z,5.32
2023-04-18T08:56:48.334Z,4.32
2023-04-18T09:01:53.686Z,4.95
2023-04-18T09:06:55.895Z,6.00
2023-04-18T09:12:07.638Z,4.97
2023-04-18T09:17:12.575Z,3.85
2023-04-18T09:22:15.306Z,3.80
2023-04-18T09:27:17.484Z,3.63
2023-04-18T09:32:26.219Z,4.03
2023-04-18T09:37:29.487Z,3.45
2023-04-18T09:42:37.167Z,3.03
2023-04-18T09:47:40.883Z,2.83
2023-04-18T09:52:44.799Z,3.28
2023-04-18T09:57:48.756Z,2.55
2023-04-18T10:02:58.569Z,3.03
2023-04-18T10:08:00.895Z,2.72
2023-04-18T10:13:05.489Z,2.60
2023-04-18T10:18:15.881Z,2.88
2023-04-18T10:23:45.116Z,3.20
2023-04-18T10:28:52.183Z,2.63
2023-04-18T10:39:21.205Z,2.65
2023-04-18T10:44:24.014Z,3.63
2023-04-18T10:49:31.123Z,3.15
2023-04-18T10:54:38.688Z,3.30
2023-04-18T10:59:43.464Z,2.30
2023-04-18T11:04:51.637Z,3.20
2023-04-18T11:09:54.548Z,3.30
2023-04-18T11:14:56.762Z,4.35
2023-04-18T11:20:05.477Z,3.72
2023-04-18T11:25:08.086Z,4.22
2023-04-18T11:30:10.900Z,3.20
2023-04-18T11:35:15.736Z,3.58
2023-04-18T11:40:18.118Z,4.32
2023-04-18T11:45:20.323Z,3.15
2023-04-18T11:50:24.611Z,4.28
2023-04-18T11:55:26.743Z,5.10
2023-04-18T12:00:34.276Z,5.70
2023-04-18T12:05:39.886Z,5.22
2023-04-18T12:10:47.915Z,5.93
2023-04-18T12:15:50.174Z,6.85
2023-04-18T12:20:53.778Z,6.25
2023-04-18T12:25:59.796Z,6.57
2023-04-18T12:31:02.244Z,6.72
2023-04-18T12:36:07.375Z,6.20
2023-04-18T12:41:09.607Z,4.95
2023-04-18T12:46:13.126Z,4.45
2023-04-18T12:51:16.751Z,5.93
2023-04-18T12:56:19.018Z,5.78
2023-04-18T13:01:21.340Z,5.28
2023-04-18T13:06:25.168Z,4.10
2023-04-18T13:11:27.301Z,6.53
2023-04-18T13:16:29.645Z,5.13
2023-04-18T13:21:33.231Z,6.78
2023-04-18T13:26:35.495Z,5.13
2023-04-18T13:31:37.941Z,7.10
2023-04-18T13:36:41.736Z,6.43
2023-04-18T13:41:44.430Z,6.55
2023-04-18T13:46:46.654Z,6.07
2023-04-18T13:51:51.480Z,6.80
2023-04-18T13:56:54.167Z,6.53
2023-04-18T14:01:56.581Z,6.30
2023-04-18T14:07:00.484Z,6.75
2023-04-18T14:12:02.766Z,6.78
2023-04-18T14:17:05.156Z,7.30
2023-04-18T14:22:08.753Z,7.85
2023-04-18T14:27:10.964Z,6.78
2023-04-18T14:32:14.274Z,7.03
2023-04-18T14:37:18.388Z,6.47
2023-04-18T14:42:20.622Z,6.28
2023-04-18T14:47:24.149Z,6.05
2023-04-18T14:52:28.351Z,6.30
2023-04-18T14:57:30.510Z,5.57
2023-04-18T15:02:32.939Z,5.82
2023-04-18T15:07:36.981Z,5.93
2023-04-18T15:12:39.111Z,5.55
2023-04-18T15:17:41.446Z,5.30
2023-04-18T15:22:45.200Z,6.10
2023-04-18T15:27:47.604Z,5.63
2023-04-18T15:32:49.920Z,5.45
2023-04-18T15:37:53.578Z,5.78
2023-04-18T15:42:55.742Z,6.63
2023-04-18T15:47:58.014Z,6.20
2023-04-18T15:53:02.622Z,6.47
2023-04-18T15:58:07.685Z,5.80
2023-04-18T16:03:09.982Z,5.57
2023-04-18T16:08:13.932Z,5.10
2023-04-18T16:13:16.040Z,4.95
2023-04-18T16:18:18.184Z,4.35
2023-04-18T16:23:21.895Z,5.80
2023-04-18T16:28:24.174Z,5.45
2023-04-18T16:33:26.454Z,3.80
2023-04-18T16:38:30.316Z,4.22
2023-04-18T16:43:32.436Z,5.00
2023-04-18T16:48:34.645Z,4.28
2023-04-18T16:53:38.112Z,5.05
2023-04-18T16:58:40.645Z,4.68
2023-04-18T17:03:42.940Z,4.22
2023-04-18T17:08:46.574Z,4.07
2023-04-18T17:13:48.861Z,4.32
2023-04-18T17:18:51.163Z,3.58
2023-04-18T17:23:54.880Z,3.53
2023-04-18T17:28:57.122Z,4.03
2023-04-18T17:33:59.689Z,3.25
2023-04-18T17:39:03.519Z,3.42
2023-04-18T17:44:06.434Z,3.35
2023-04-18T17:49:11.643Z,3.60
2023-04-18T17:54:15.280Z,3.97
2023-04-18T17:59:17.545Z,4.30
2023-04-18T18:04:19.852Z,3.45
2023-04-18T18:09:23.670Z,3.50
2023-04-18T18:14:26.693Z,2.65
2023-04-18T18:19:28.875Z,3.10
2023-04-18T18:24:32.552Z,3.20
2023-04-18T18:29:35.043Z,3.33
2023-04-18T18:34:38.490Z,3.20
2023-04-18T18:39:42.446Z,3.20
2023-04-18T18:44:45.397Z,3.15
2023-04-18T18:49:47.611Z,3.08
2023-04-18T18:54:53.007Z,3.20
2023-04-18T18:59:57.596Z,3.40
2023-04-18T19:05:00.385Z,3.67
2023-04-18T19:10:05.509Z,3.50
2023-04-18T19:15:09.505Z,3.63
2023-04-18T19:20:12.196Z,3.13
2023-04-18T19:25:16.200Z,3.35
2023-04-18T19:30:19.194Z,3.22
2023-04-18T19:35:22.007Z,3.22
2023-04-18T19:40:27.227Z,2.97
2023-04-18T19:45:30.907Z,3.20
2023-04-18T19:50:33.235Z,3.47
2023-04-18T19:55:37.050Z,2.72
2023-04-18T20:00:39.903Z,2.88
2023-04-18T20:05:42.477Z,3.50
2023-04-18T20:10:46.888Z,2.92
2023-04-18T20:15:49.178Z,2.90
2023-04-18T20:20:51.727Z,2.63
2023-04-18T20:25:55.676Z,3.28
2023-04-18T20:30:57.994Z,3.40
2023-04-18T20:36:00.194Z,3.00
2023-04-18T20:41:03.908Z,2.70
2023-04-18T20:46:06.062Z,2.95
2023-04-18T20:51:08.382Z,3.00
2023-04-18T20:56:11.995Z,2.85
2023-04-18T21:01:14.207Z,2.63
2023-04-18T21:06:16.479Z,3.20
2023-04-18T21:11:20.019Z,3.05
2023-04-18T21:16:22.212Z,3.03
2023-04-18T21:21:25.010Z,2.80
2023-04-18T21:26:28.683Z,3.65
2023-04-18T21:31:32.402Z,4.18
2023-04-18T21:36:34.545Z,4.57
2023-04-18T21:41:38.706Z,4.90
2023-04-18T21:46:40.845Z,4.97
2023-04-18T21:51:42.945Z,4.72
2023-04-18T21:56:46.486Z,5.10
2023-04-18T22:01:48.735Z,4.80
2023-04-18T22:06:50.858Z,4.32
2023-04-18T22:11:54.370Z,5.95
2023-04-18T22:16:56.560Z,4.57
2023-04-18T22:21:59.150Z,4.65
2023-04-18T22:27:02.706Z,5.88
2023-04-18T22:32:05.259Z,5.57
2023-04-18T22:37:07.324Z,5.60
2023-04-18T22:42:10.869Z,5.57
2023-04-18T22:47:12.955Z,5.32
2023-04-18T22:52:15.217Z,3.70
2023-04-18T22:57:19.011Z,6.22
2023-04-18T23:02:21.159Z,5.05
2023-04-18T23:07:23.460Z,5.75
2023-04-18T23:12:27.141Z,6.75
2023-04-18T23:17:29.341Z,5.18
2023-04-18T23:22:31.446Z,5.50
2023-04-18T23:27:34.980Z,4.38
2023-04-18T23:32:37.159Z,5.20
2023-04-18T23:37:39.522Z,6.38
2023-04-18T23:42:43.076Z,5.90
2023-04-18T23:47:45.248Z,6.45
2023-04-18T23:52:47.441Z,6.07
2023-04-18T23:57:50.986Z,5.88
